sensor_id;sensor_type;location;lat;lon;timestamp;P1;durP1;ratioP1;P2;durP2;ratioP2
27895;SDS011;15241;48.374;10.876;2022-08-01T00:02:26;3.27;;;2.33;;
27895;SDS011;15241;48.374;10.876;2022-08-01T00:07:25;4.33;;;2.77;;
27895;SDS011;15241;48.374;10.876;2022-08-01T00:12:24;4.53;;;2.45;;
27895;SDS011;15241;48.374;10.876;2022-08-01T00:17:23;3.30;;;2.37;;
27895;SDS011;15241;48.374;10.876;2022-08-01T00:22:22;3.35;;;2.60;;
27895;SDS011;15241;48.374;10.876;2022-08-01T00:27:21;5.12;;;2.50;;
27895;SDS011;15241;48.374;10.876;2022-08-01T00:32:20;4.30;;;2.95;;
27895;SDS011;15241;48.374;10.876;2022-08-01T00:37:19;2.55;;;2.02;;
27895;SDS011;15241;48.374;10.876;2022-08-01T00:42:18;2.67;;;2.47;;
27895;SDS011;15241;48.374;10.876;2022-08-01T00:47:17;6.58;;;2.35;;
27895;SDS011;15241;48.374;10.876;2022-08-01T00:52:16;2.83;;;2.62;;
27895;SDS011;15241;48.374;10.876;2022-08-01T00:57:15;5.78;;;2.65;;
27895;SDS011;15241;48.374;10.876;2022-08-01T01:02:14;4.25;;;2.70;;
27895;SDS011;15241;48.374;10.876;2022-08-01T01:07:15;3.40;;;2.47;;
27895;SDS011;15241;48.374;10.876;2022-08-01T01:12:18;2.70;;;2.47;;
27895;SDS011;15241;48.374;10.876;2022-08-01T01:17:19;4.35;;;2.47;;
27895;SDS011;15241;48.374;10.876;2022-08-01T01:22:22;3.95;;;2.40;;
27895;SDS011;15241;48.374;10.876;2022-08-01T01:27:29;2.42;;;2.22;;
27895;SDS011;15241;48.374;10.876;2022-08-01T01:32:32;3.60;;;2.42;;
27895;SDS011;15241;48.374;10.876;2022-08-01T01:37:33;3.40;;;2.72;;
27895;SDS011;15241;48.374;10.876;2022-08-01T01:42:34;2.95;;;2.50;;
27895;SDS011;15241;48.374;10.876;2022-08-01T01:47:34;6.75;;;2.60;;
27895;SDS011;15241;48.374;10.876;2022-08-01T01:52:35;3.58;;;2.40;;
27895;SDS011;15241;48.374;10.876;2022-08-01T01:57:36;4.65;;;2.85;;
27895;SDS011;15241;48.374;10.876;2022-08-01T02:02:38;3.55;;;2.40;;
27895;SDS011;15241;48.374;10.876;2022-08-01T02:07:39;2.83;;;2.60;;
27895;SDS011;15241;48.374;10.876;2022-08-01T02:12:40;2.40;;;2.20;;
27895;SDS011;15241;48.374;10.876;2022-08-01T02:17:41;3.95;;;2.60;;
27895;SDS011;15241;48.374;10.876;2022-08-01T02:22:43;3.20;;;2.27;;
27895;SDS011;15241;48.374;10.876;2022-08-01T02:27:45;3.92;;;2.25;;
27895;SDS011;15241;48.374;10.876;2022-08-01T02:32:47;4.15;;;2.25;;
27895;SDS011;15241;48.374;10.876;2022-08-01T02:37:49;3.05;;;2.30;;
27895;SDS011;15241;48.374;10.876;2022-08-01T02:42:50;3.80;;;2.40;;
27895;SDS011;15241;48.374;10.876;2022-08-01T02:47:59;2.87;;;2.50;;
27895;SDS011;15241;48.374;10.876;2022-08-01T02:53:00;2.58;;;1.90;;
27895;SDS011;15241;48.374;10.876;2022-08-01T02:58:01;3.47;;;2.10;;
27895;SDS011;15241;48.374;10.876;2022-08-01T03:03:02;2.50;;;2.30;;
27895;SDS011;15241;48.374;10.876;2022-08-01T03:08:05;3.30;;;2.20;;
27895;SDS011;15241;48.374;10.876;2022-08-01T03:13:06;4.15;;;2.12;;
27895;SDS011;15241;48.374;10.876;2022-08-01T03:18:08;4.53;;;2.50;;
27895;SDS011;15241;48.374;10.876;2022-08-01T03:23:09;4.47;;;2.27;;
27895;SDS011;15241;48.374;10.876;2022-08-01T03:28:12;3.58;;;2.37;;
27895;SDS011;15241;48.374;10.876;2022-08-01T03:33:18;3.72;;;2.33;;
27895;SDS011;15241;48.374;10.876;2022-08-01T03:38:18;3.90;;;2.20;;
27895;SDS011;15241;48.374;10.876;2022-08-01T03:43:20;3.55;;;2.45;;
27895;SDS011;15241;48.374;10.876;2022-08-01T03:48:22;4.40;;;2.70;;
27895;SDS011;15241;48.374;10.876;2022-08-01T03:53:24;3.70;;;2.52;;
27895;SDS011;15241;48.374;10.876;2022-08-01T03:58:26;5.83;;;2.67;;
27895;SDS011;15241;48.374;10.876;2022-08-01T04:03:26;2.37;;;2.00;;
27895;SDS011;15241;48.374;10.876;2022-08-01T04:08:34;2.70;;;2.50;;
27895;SDS011;15241;48.374;10.876;2022-08-01T04:13:33;2.67;;;2.25;;
27895;SDS011;15241;48.374;10.876;2022-08-01T04:18:32;4.17;;;2.55;;
27895;SDS011;15241;48.374;10.876;2022-08-01T04:23:31;2.47;;;2.10;;
27895;SDS011;15241;48.374;10.876;2022-08-01T04:28:33;4.58;;;2.77;;
27895;SDS011;15241;48.374;10.876;2022-08-01T04:33:34;2.70;;;2.08;;
27895;SDS011;15241;48.374;10.876;2022-08-01T04:38:35;2.52;;;2.27;;
27895;SDS011;15241;48.374;10.876;2022-08-01T04:43:35;2.75;;;2.55;;
27895;SDS011;15241;48.374;10.876;2022-08-01T04:48:36;2.77;;;2.45;;
27895;SDS011;15241;48.374;10.876;2022-08-01T04:53:36;3.12;;;2.80;;
27895;SDS011;15241;48.374;10.876;2022-08-01T04:58:34;4.33;;;2.10;;
27895;SDS011;15241;48.374;10.876;2022-08-01T05:03:34;6.30;;;2.65;;
27895;SDS011;15241;48.374;10.876;2022-08-01T05:08:33;4.47;;;2.40;;
27895;SDS011;15241;48.374;10.876;2022-08-01T05:13:32;3.25;;;2.40;;
27895;SDS011;15241;48.374;10.876;2022-08-01T05:18:31;3.80;;;2.42;;
27895;SDS011;15241;48.374;10.876;2022-08-01T05:23:30;2.98;;;2.20;;
27895;SDS011;15241;48.374;10.876;2022-08-01T05:28:29;5.92;;;2.50;;
27895;SDS011;15241;48.374;10.876;2022-08-01T05:33:29;7.17;;;4.95;;
27895;SDS011;15241;48.374;10.876;2022-08-01T05:38:28;5.90;;;2.65;;
27895;SDS011;15241;48.374;10.876;2022-08-01T05:43:27;2.87;;;2.45;;
27895;SDS011;15241;48.374;10.876;2022-08-01T05:48:26;3.35;;;2.33;;
27895;SDS011;15241;48.374;10.876;2022-08-01T05:53:25;5.47;;;2.33;;
27895;SDS011;15241;48.374;10.876;2022-08-01T05:58:25;2.33;;;2.10;;
27895;SDS011;15241;48.374;10.876;2022-08-01T06:03:24;3.05;;;2.33;;
27895;SDS011;15241;48.374;10.876;2022-08-01T06:08:23;2.75;;;2.37;;
27895;SDS011;15241;48.374;10.876;2022-08-01T06:13:22;3.62;;;2.30;;
27895;SDS011;15241;48.374;10.876;2022-08-01T06:18:21;6.33;;;5.05;;
27895;SDS011;15241;48.374;10.876;2022-08-01T06:23:20;4.17;;;3.02;;
27895;SDS011;15241;48.374;10.876;2022-08-01T06:28:19;8.20;;;3.00;;
27895;SDS011;15241;48.374;10.876;2022-08-01T06:33:18;3.25;;;2.10;;
27895;SDS011;15241;48.374;10.876;2022-08-01T06:38:17;4.45;;;2.58;;
27895;SDS011;15241;48.374;10.876;2022-08-01T06:43:17;5.37;;;2.75;;
27895;SDS011;15241;48.374;10.876;2022-08-01T06:48:16;2.58;;;2.35;;
27895;SDS011;15241;48.374;10.876;2022-08-01T06:53:15;4.10;;;2.62;;
27895;SDS011;15241;48.374;10.876;2022-08-01T06:58:14;5.22;;;2.75;;
27895;SDS011;15241;48.374;10.876;2022-08-01T07:03:14;4.17;;;2.80;;
27895;SDS011;15241;48.374;10.876;2022-08-01T07:08:13;3.30;;;2.55;;
27895;SDS011;15241;48.374;10.876;2022-08-01T07:13:14;3.20;;;2.30;;
27895;SDS011;15241;48.374;10.876;2022-08-01T07:18:12;5.42;;;2.52;;
27895;SDS011;15241;48.374;10.876;2022-08-01T07:23:12;7.22;;;3.05;;
27895;SDS011;15241;48.374;10.876;2022-08-01T07:28:11;4.33;;;3.00;;
27895;SDS011;15241;48.374;10.876;2022-08-01T07:33:10;5.65;;;2.52;;
27895;SDS011;15241;48.374;10.876;2022-08-01T07:38:09;7.25;;;3.00;;
27895;SDS011;15241;48.374;10.876;2022-08-01T07:43:08;3.08;;;2.77;;
27895;SDS011;15241;48.374;10.876;2022-08-01T07:48:07;4.45;;;2.72;;
27895;SDS011;15241;48.374;10.876;2022-08-01T07:53:06;9.55;;;3.22;;
27895;SDS011;15241;48.374;10.876;2022-08-01T07:58:05;3.30;;;2.40;;
27895;SDS011;15241;48.374;10.876;2022-08-01T08:03:04;3.85;;;2.58;;
27895;SDS011;15241;48.374;10.876;2022-08-01T08:08:05;3.02;;;2.12;;
27895;SDS011;15241;48.374;10.876;2022-08-01T08:13:04;3.40;;;2.25;;
27895;SDS011;15241;48.374;10.876;2022-08-01T08:18:03;5.00;;;2.50;;
27895;SDS011;15241;48.374;10.876;2022-08-01T08:23:03;2.98;;;2.05;;
27895;SDS011;15241;48.374;10.876;2022-08-01T08:28:02;2.58;;;2.00;;
27895;SDS011;15241;48.374;10.876;2022-08-01T08:33:02;3.80;;;2.10;;
27895;SDS011;15241;48.374;10.876;2022-08-01T08:38:01;3.98;;;2.20;;
27895;SDS011;15241;48.374;10.876;2022-08-01T08:43:00;2.67;;;2.25;;
27895;SDS011;15241;48.374;10.876;2022-08-01T08:48:00;3.50;;;2.20;;
27895;SDS011;15241;48.374;10.876;2022-08-01T08:52:59;2.20;;;2.00;;
27895;SDS011;15241;48.374;10.876;2022-08-01T08:58:07;2.25;;;1.62;;
27895;SDS011;15241;48.374;10.876;2022-08-01T09:03:08;2.60;;;1.60;;
27895;SDS011;15241;48.374;10.876;2022-08-01T09:08:07;3.65;;;3.17;;
27895;SDS011;15241;48.374;10.876;2022-08-01T09:13:08;3.27;;;1.95;;
27895;SDS011;15241;48.374;10.876;2022-08-01T09:18:06;1.87;;;1.70;;
27895;SDS011;15241;48.374;10.876;2022-08-01T09:23:05;1.60;;;1.50;;
27895;SDS011;15241;48.374;10.876;2022-08-01T09:28:06;2.47;;;1.27;;
27895;SDS011;15241;48.374;10.876;2022-08-01T09:33:05;1.55;;;1.45;;
27895;SDS011;15241;48.374;10.876;2022-08-01T09:38:14;4.08;;;1.60;;
27895;SDS011;15241;48.374;10.876;2022-08-01T09:43:13;1.70;;;1.50;;
27895;SDS011;15241;48.374;10.876;2022-08-01T09:48:12;3.77;;;1.50;;
27895;SDS011;15241;48.374;10.876;2022-08-01T09:53:11;2.58;;;1.67;;
27895;SDS011;15241;48.374;10.876;2022-08-01T09:58:11;2.70;;;1.40;;
27895;SDS011;15241;48.374;10.876;2022-08-01T10:03:19;2.42;;;1.50;;
27895;SDS011;15241;48.374;10.876;2022-08-01T10:08:19;2.92;;;1.40;;
27895;SDS011;15241;48.374;10.876;2022-08-01T10:13:18;2.10;;;1.20;;
27895;SDS011;15241;48.374;10.876;2022-08-01T10:18:17;2.77;;;1.30;;
27895;SDS011;15241;48.374;10.876;2022-08-01T10:23:16;3.50;;;1.22;;
27895;SDS011;15241;48.374;10.876;2022-08-01T10:28:16;1.75;;;1.40;;
27895;SDS011;15241;48.374;10.876;2022-08-01T10:33:17;2.27;;;1.12;;
27895;SDS011;15241;48.374;10.876;2022-08-01T10:38:17;1.67;;;1.20;;
27895;SDS011;15241;48.374;10.876;2022-08-01T10:43:16;3.40;;;1.77;;
27895;SDS011;15241;48.374;10.876;2022-08-01T10:48:18;2.17;;;1.98;;
27895;SDS011;15241;48.374;10.876;2022-08-01T10:53:19;2.67;;;1.22;;
27895;SDS011;15241;48.374;10.876;2022-08-01T10:58:23;1.40;;;1.30;;
27895;SDS011;15241;48.374;10.876;2022-08-01T11:03:32;1.50;;;1.30;;
27895;SDS011;15241;48.374;10.876;2022-08-01T11:08:33;1.92;;;1.27;;
27895;SDS011;15241;48.374;10.876;2022-08-01T11:19:18;2.37;;;1.60;;
27895;SDS011;15241;48.374;10.876;2022-08-01T11:24:22;1.52;;;1.42;;
27895;SDS011;15241;48.374;10.876;2022-08-01T11:29:41;4.28;;;1.75;;
27895;SDS011;15241;48.374;10.876;2022-08-01T11:34:52;3.15;;;1.75;;
27895;SDS011;15241;48.374;10.876;2022-08-01T11:45:14;3.98;;;2.02;;
27895;SDS011;15241;48.374;10.876;2022-08-01T11:50:33;4.03;;;2.02;;
27895;SDS011;15241;48.374;10.876;2022-08-01T11:55:34;2.77;;;1.55;;
27895;SDS011;15241;48.374;10.876;2022-08-01T12:00:33;1.82;;;1.70;;
27895;SDS011;15241;48.374;10.876;2022-08-01T12:05:33;2.77;;;1.90;;
27895;SDS011;15241;48.374;10.876;2022-08-01T12:10:34;2.35;;;1.87;;
27895;SDS011;15241;48.374;10.876;2022-08-01T12:15:33;3.12;;;2.12;;
27895;SDS011;15241;48.374;10.876;2022-08-01T12:20:34;2.00;;;1.72;;
27895;SDS011;15241;48.374;10.876;2022-08-01T12:25:34;2.22;;;1.85;;
27895;SDS011;15241;48.374;10.876;2022-08-01T12:30:34;3.45;;;1.70;;
27895;SDS011;15241;48.374;10.876;2022-08-01T12:35:37;2.50;;;1.32;;
27895;SDS011;15241;48.374;10.876;2022-08-01T12:40:40;3.62;;;1.75;;
27895;SDS011;15241;48.374;10.876;2022-08-01T12:45:40;2.17;;;1.60;;
27895;SDS011;15241;48.374;10.876;2022-08-01T12:50:41;2.05;;;1.85;;
27895;SDS011;15241;48.374;10.876;2022-08-01T12:55:45;3.35;;;1.52;;
27895;SDS011;15241;48.374;10.876;2022-08-01T13:00:46;2.83;;;1.82;;
27895;SDS011;15241;48.374;10.876;2022-08-01T13:05:46;1.65;;;1.50;;
27895;SDS011;15241;48.374;10.876;2022-08-01T13:10:47;2.20;;;1.50;;
27895;SDS011;15241;48.374;10.876;2022-08-01T13:15:46;3.15;;;1.42;;
27895;SDS011;15241;48.374;10.876;2022-08-01T13:20:47;2.27;;;1.40;;
27895;SDS011;15241;48.374;10.876;2022-08-01T13:25:50;2.37;;;1.70;;
27895;SDS011;15241;48.374;10.876;2022-08-01T13:30:51;1.85;;;1.70;;
27895;SDS011;15241;48.374;10.876;2022-08-01T13:35:52;9.60;;;2.90;;
27895;SDS011;15241;48.374;10.876;2022-08-01T13:40:58;6.80;;;2.35;;
27895;SDS011;15241;48.374;10.876;2022-08-01T13:45:57;10.15;;;3.35;;
27895;SDS011;15241;48.374;10.876;2022-08-01T13:50:57;12.88;;;3.85;;
27895;SDS011;15241;48.374;10.876;2022-08-01T13:55:56;4.87;;;2.05;;
27895;SDS011;15241;48.374;10.876;2022-08-01T14:00:55;4.70;;;2.08;;
27895;SDS011;15241;48.374;10.876;2022-08-01T14:05:54;6.10;;;2.30;;
27895;SDS011;15241;48.374;10.876;2022-08-01T14:10:54;4.40;;;2.50;;
27895;SDS011;15241;48.374;10.876;2022-08-01T14:15:53;3.70;;;1.70;;
27895;SDS011;15241;48.374;10.876;2022-08-01T14:20:52;3.40;;;1.90;;
27895;SDS011;15241;48.374;10.876;2022-08-01T14:25:51;4.83;;;1.62;;
27895;SDS011;15241;48.374;10.876;2022-08-01T14:30:50;4.00;;;1.42;;
27895;SDS011;15241;48.374;10.876;2022-08-01T14:35:49;4.22;;;2.05;;
27895;SDS011;15241;48.374;10.876;2022-08-01T14:40:48;4.25;;;2.02;;
27895;SDS011;15241;48.374;10.876;2022-08-01T14:45:48;3.50;;;1.80;;
27895;SDS011;15241;48.374;10.876;2022-08-01T14:50:46;3.02;;;2.20;;
27895;SDS011;15241;48.374;10.876;2022-08-01T14:55:45;3.50;;;2.52;;
27895;SDS011;15241;48.374;10.876;2022-08-01T15:00:44;5.60;;;3.50;;
27895;SDS011;15241;48.374;10.876;2022-08-01T15:05:43;3.85;;;2.42;;
27895;SDS011;15241;48.374;10.876;2022-08-01T15:10:42;4.60;;;2.40;;
27895;SDS011;15241;48.374;10.876;2022-08-01T15:15:41;4.55;;;3.77;;
27895;SDS011;15241;48.374;10.876;2022-08-01T15:20:40;3.98;;;2.98;;
27895;SDS011;15241;48.374;10.876;2022-08-01T15:25:39;4.72;;;2.50;;
27895;SDS011;15241;48.374;10.876;2022-08-01T15:30:38;2.02;;;1.82;;
27895;SDS011;15241;48.374;10.876;2022-08-01T15:35:37;2.58;;;1.60;;
27895;SDS011;15241;48.374;10.876;2022-08-01T15:40:36;2.58;;;1.82;;
27895;SDS011;15241;48.374;10.876;2022-08-01T15:45:37;4.72;;;2.05;;
27895;SDS011;15241;48.374;10.876;2022-08-01T15:50:35;4.62;;;1.70;;
27895;SDS011;15241;48.374;10.876;2022-08-01T15:55:35;4.55;;;1.70;;
27895;SDS011;15241;48.374;10.876;2022-08-01T16:00:34;2.80;;;1.85;;
27895;SDS011;15241;48.374;10.876;2022-08-01T16:05:33;1.30;;;1.20;;
27895;SDS011;15241;48.374;10.876;2022-08-01T16:10:32;2.35;;;1.37;;
27895;SDS011;15241;48.374;10.876;2022-08-01T16:15:31;1.82;;;1.20;;
27895;SDS011;15241;48.374;10.876;2022-08-01T16:20:30;1.57;;;1.20;;
27895;SDS011;15241;48.374;10.876;2022-08-01T16:25:30;2.12;;;1.30;;
27895;SDS011;15241;48.374;10.876;2022-08-01T16:30:29;3.47;;;1.17;;
27895;SDS011;15241;48.374;10.876;2022-08-01T16:35:27;1.65;;;1.00;;
27895;SDS011;15241;48.374;10.876;2022-08-01T16:40:26;2.72;;;1.30;;
27895;SDS011;15241;48.374;10.876;2022-08-01T16:45:25;3.62;;;1.12;;
27895;SDS011;15241;48.374;10.876;2022-08-01T16:50:24;2.35;;;1.17;;
27895;SDS011;15241;48.374;10.876;2022-08-01T16:55:23;2.65;;;1.30;;
27895;SDS011;15241;48.374;10.876;2022-08-01T17:00:25;3.83;;;1.77;;
27895;SDS011;15241;48.374;10.876;2022-08-01T17:05:24;2.22;;;1.45;;
27895;SDS011;15241;48.374;10.876;2022-08-01T17:10:24;7.53;;;3.95;;
27895;SDS011;15241;48.374;10.876;2022-08-01T17:20:29;5.08;;;3.00;;
27895;SDS011;15241;48.374;10.876;2022-08-01T17:25:29;4.17;;;2.17;;
27895;SDS011;15241;48.374;10.876;2022-08-01T17:30:28;2.70;;;2.12;;
27895;SDS011;15241;48.374;10.876;2022-08-01T17:35:28;3.45;;;2.00;;
27895;SDS011;15241;48.374;10.876;2022-08-01T17:40:26;4.60;;;1.80;;
27895;SDS011;15241;48.374;10.876;2022-08-01T17:45:25;2.95;;;1.85;;
27895;SDS011;15241;48.374;10.876;2022-08-01T17:50:24;4.55;;;2.42;;
27895;SDS011;15241;48.374;10.876;2022-08-01T17:55:23;6.25;;;2.75;;
27895;SDS011;15241;48.374;10.876;2022-08-01T18:00:22;5.22;;;3.62;;
27895;SDS011;15241;48.374;10.876;2022-08-01T18:05:21;2.65;;;2.02;;
27895;SDS011;15241;48.374;10.876;2022-08-01T18:10:20;6.20;;;2.60;;
27895;SDS011;15241;48.374;10.876;2022-08-01T18:15:19;1.85;;;1.60;;
27895;SDS011;15241;48.374;10.876;2022-08-01T18:20:18;4.20;;;1.70;;
27895;SDS011;15241;48.374;10.876;2022-08-01T18:25:17;2.40;;;1.52;;
27895;SDS011;15241;48.374;10.876;2022-08-01T18:30:16;2.50;;;2.00;;
27895;SDS011;15241;48.374;10.876;2022-08-01T18:35:15;2.45;;;2.25;;
27895;SDS011;15241;48.374;10.876;2022-08-01T18:40:14;9.10;;;3.25;;
27895;SDS011;15241;48.374;10.876;2022-08-01T18:45:13;5.58;;;2.50;;
27895;SDS011;15241;48.374;10.876;2022-08-01T18:50:12;9.23;;;2.60;;
27895;SDS011;15241;48.374;10.876;2022-08-01T18:55:13;5.80;;;3.05;;
27895;SDS011;15241;48.374;10.876;2022-08-01T19:00:12;3.50;;;2.40;;
27895;SDS011;15241;48.374;10.876;2022-08-01T19:05:12;3.62;;;2.45;;
27895;SDS011;15241;48.374;10.876;2022-08-01T19:10:12;4.87;;;2.80;;
27895;SDS011;15241;48.374;10.876;2022-08-01T19:15:10;4.03;;;2.37;;
27895;SDS011;15241;48.374;10.876;2022-08-01T19:20:10;4.45;;;2.50;;
27895;SDS011;15241;48.374;10.876;2022-08-01T19:25:09;2.92;;;1.82;;
27895;SDS011;15241;48.374;10.876;2022-08-01T19:30:10;2.90;;;2.10;;
27895;SDS011;15241;48.374;10.876;2022-08-01T19:35:10;1.92;;;1.67;;
27895;SDS011;15241;48.374;10.876;2022-08-01T19:40:11;3.95;;;2.30;;
27895;SDS011;15241;48.374;10.876;2022-08-01T19:45:11;3.60;;;1.90;;
27895;SDS011;15241;48.374;10.876;2022-08-01T19:50:10;2.98;;;2.00;;
27895;SDS011;15241;48.374;10.876;2022-08-01T19:55:10;2.90;;;1.77;;
27895;SDS011;15241;48.374;10.876;2022-08-01T20:00:11;2.27;;;1.95;;
27895;SDS011;15241;48.374;10.876;2022-08-01T20:05:11;3.92;;;2.22;;
27895;SDS011;15241;48.374;10.876;2022-08-01T20:10:11;3.80;;;2.20;;
27895;SDS011;15241;48.374;10.876;2022-08-01T20:15:11;2.30;;;2.10;;
27895;SDS011;15241;48.374;10.876;2022-08-01T20:20:10;3.12;;;2.12;;
27895;SDS011;15241;48.374;10.876;2022-08-01T20:25:09;4.22;;;2.30;;
27895;SDS011;15241;48.374;10.876;2022-08-01T20:30:10;3.62;;;2.47;;
27895;SDS011;15241;48.374;10.876;2022-08-01T20:35:10;3.80;;;2.10;;
27895;SDS011;15241;48.374;10.876;2022-08-01T20:40:10;2.80;;;1.98;;
27895;SDS011;15241;48.374;10.876;2022-08-01T20:45:11;2.85;;;2.58;;
27895;SDS011;15241;48.374;10.876;2022-08-01T20:50:12;2.27;;;1.85;;
27895;SDS011;15241;48.374;10.876;2022-08-01T20:55:12;2.75;;;1.75;;
27895;SDS011;15241;48.374;10.876;2022-08-01T21:00:12;3.35;;;2.70;;
27895;SDS011;15241;48.374;10.876;2022-08-01T21:05:14;4.08;;;2.83;;
27895;SDS011;15241;48.374;10.876;2022-08-01T21:10:16;2.90;;;2.60;;
27895;SDS011;15241;48.374;10.876;2022-08-01T21:15:19;2.98;;;2.45;;
27895;SDS011;15241;48.374;10.876;2022-08-01T21:20:21;4.17;;;2.77;;
27895;SDS011;15241;48.374;10.876;2022-08-01T21:25:25;3.40;;;2.58;;
27895;SDS011;15241;48.374;10.876;2022-08-01T21:30:25;3.02;;;2.72;;
27895;SDS011;15241;48.374;10.876;2022-08-01T21:35:27;3.60;;;2.25;;
27895;SDS011;15241;48.374;10.876;2022-08-01T21:40:26;3.35;;;2.58;;
27895;SDS011;15241;48.374;10.876;2022-08-01T21:45:27;3.37;;;2.67;;
27895;SDS011;15241;48.374;10.876;2022-08-01T21:50:26;4.80;;;2.15;;
27895;SDS011;15241;48.374;10.876;2022-08-01T21:55:32;4.53;;;1.95;;
27895;SDS011;15241;48.374;10.876;2022-08-01T22:00:31;2.27;;;1.40;;
27895;SDS011;15241;48.374;10.876;2022-08-01T22:05:32;2.47;;;1.85;;
27895;SDS011;15241;48.374;10.876;2022-08-01T22:10:32;1.90;;;1.50;;
27895;SDS011;15241;48.374;10.876;2022-08-01T22:15:33;4.37;;;2.17;;
27895;SDS011;15241;48.374;10.876;2022-08-01T22:20:32;5.08;;;1.65;;
27895;SDS011;15241;48.374;10.876;2022-08-01T22:25:31;2.67;;;1.52;;
27895;SDS011;15241;48.374;10.876;2022-08-01T22:30:31;2.22;;;1.70;;
27895;SDS011;15241;48.374;10.876;2022-08-01T22:35:33;2.80;;;1.80;;
27895;SDS011;15241;48.374;10.876;2022-08-01T22:40:33;6.35;;;2.00;;
27895;SDS011;15241;48.374;10.876;2022-08-01T22:45:35;2.37;;;1.72;;
27895;SDS011;15241;48.374;10.876;2022-08-01T22:50:37;4.28;;;1.80;;
27895;SDS011;15241;48.374;10.876;2022-08-01T22:55:37;2.50;;;1.60;;
27895;SDS011;15241;48.374;10.876;2022-08-01T23:00:40;1.87;;;1.60;;
27895;SDS011;15241;48.374;10.876;2022-08-01T23:05:44;6.00;;;1.80;;
27895;SDS011;15241;48.374;10.876;2022-08-01T23:10:44;1.67;;;1.57;;
27895;SDS011;15241;48.374;10.876;2022-08-01T23:15:43;3.27;;;1.62;;
27895;SDS011;15241;48.374;10.876;2022-08-01T23:20:43;3.72;;;1.65;;
27895;SDS011;15241;48.374;10.876;2022-08-01T23:25:43;2.85;;;1.70;;
27895;SDS011;15241;48.374;10.876;2022-08-01T23:30:44;2.95;;;1.50;;
27895;SDS011;15241;48.374;10.876;2022-08-01T23:35:46;2.40;;;1.50;;
27895;SDS011;15241;48.374;10.876;2022-08-01T23:40:45;3.85;;;1.42;;
27895;SDS011;15241;48.374;10.876;2022-08-01T23:45:44;2.08;;;1.35;;
27895;SDS011;15241;48.374;10.876;2022-08-01T23:50:43;1.50;;;1.27;;
27895;SDS011;15241;48.374;10.876;2022-08-01T23:55:42;1.80;;;1.27;;
